San Simon, AZ (85632)

3:19 AM MST on July 31, 2016 (GMT -0700)
APRSWXNET | | Change Station

Elev 5045 ft 32.15 °N, 109.44 °W | Updated 33 minutes ago

Clear
Clear
71 °F
Feels Like 76 °F
N
2
Wind Variable Wind from NE
Gusts 0.0 mph

Today
High -- | Low -- °F
--% Chance of Precip.
Yesterday
High -- | Low -- °F
Precip. -- in
Pressure 29.76 in
Visibility 10.0 miles
Clouds Clear
Heat Index 76 °F
Dew Point 57 °F
Humidity 62%
Rainfall in
Snow Depth Not available.
5:32 AM 7:15 PM
Waning Crescent, 7% visible
METAR KSAD 310951Z AUTO 33009KT 10SM CLR 25/14 A2994 RMK AO2 SLP077 T02500139
Pressure 29.76 in
Visibility 10.0 miles
Clouds Clear
Heat Index 76 °F
Dew Point 57 °F
Humidity 62%
Rainfall in
Snow Depth Not available.
5:32 AM 7:15 PM
Waning Crescent, 7% visible
METAR KSAD 310951Z AUTO 33009KT 10SM CLR 25/14 A2994 RMK AO2 SLP077 T02500139

10-Day Weather Forecast

Almanac

Astronomy

Jul. 31, 2016 Rise Set
Actual Time
Civil Twilight
Nautical Twilight
Astronomical Twilight
Moon
Length of Visible Light
Length of Day
Tomorrow will be .
, % of the Moon is Illuminated

Today's Extremes

State Highs State Lows

Community

WunderPhotos

Upload Photos

1,928,778 photos uploaded!

WunderBlog® & News

Nearby

Air Quality

  Air Quality AQ Index Pollutant
Not available.

Snow Depth

Station Depth Elevation

Earthquake Activity

City Distance Mag. Time & Date
Minimum magnitude displayed is 2.5.

Coastal Water Temperatures

Place Temperature

Stations

Nearby Weather Stations

Station Location Temp. Windchill Dew Point Humidity Wind Precip. Elev Updated Type
                   

Watches & Warnings

There are currently no watches in effect.